Time;durP1;ratioP1;P1;durP2;ratioP2;P2;SDS_P1;SDS_P2;PMS_P1;PMS_P2;Temp;Humidity;BMP_temperature;BMP_pressure;BME280_temperature;BME280_humidity;BME280_pressure;Samples;Min_cycle;Max_cycle;Signal;HPM_P1;HPM_P2
2022/02/19 00:02:01;;;;;;;2.33;0.40;;;;;;;8.89;51.26;94885.22;5087103;28;20424;-71
2022/02/19 00:04:26;;;;;;;2.15;0.40;;;;;;;8.89;50.94;94877.25;5085503;28;20027;-71
2022/02/19 00:06:52;;;;;;;1.10;0.30;;;;;;;8.53;51.56;94871.94;5087043;28;20040;-72
2022/02/19 00:09:17;;;;;;;0.88;0.35;;;;;;;8.98;51.10;94915.28;5086627;28;20032;-69
2022/02/19 00:11:42;;;;;;;1.13;0.30;;;;;;;8.64;51.67;94862.69;5086919;28;20028;-70
2022/02/19 00:14:08;;;;;;;0.93;0.38;;;;;;;8.91;51.32;94882.28;5087079;28;20096;-70
2022/02/19 00:16:33;;;;;;;2.30;0.50;;;;;;;9.44;49.49;94900.19;5087004;28;20137;-71
2022/02/19 00:18:59;;;;;;;1.77;0.32;;;;;;;8.83;50.91;94868.63;5086465;28;20060;-71
2022/02/19 00:21:24;;;;;;;1.00;0.35;;;;;;;8.13;53.13;94927.28;5077153;28;20028;-71
2022/02/19 00:23:50;;;;;;;0.57;0.50;;;;;;;8.23;51.45;94919.13;5072136;28;20513;-71
2022/02/19 00:26:15;;;;;;;3.20;0.55;;;;;;;8.40;51.61;94958.34;5073525;28;20025;-70
2022/02/19 00:28:40;;;;;;;1.23;0.45;;;;;;;7.96;48.75;94950.91;5072992;28;20577;-72
2022/02/19 00:31:06;;;;;;;5.07;0.95;;;;;;;8.71;47.65;94929.38;5073235;28;20028;-71
2022/02/19 00:33:31;;;;;;;1.75;0.40;;;;;;;8.51;48.07;94961.59;5073266;28;20534;-70
2022/02/19 00:35:57;;;;;;;1.55;0.70;;;;;;;7.49;48.45;94920.97;5072359;28;20031;-71
2022/02/19 00:38:22;;;;;;;1.33;0.50;;;;;;;7.52;47.80;94885.97;5072891;28;20103;-70
2022/02/19 00:40:49;;;;;;;1.33;0.40;;;;;;;7.60;47.44;94850.91;5073209;28;20112;-71
2022/02/19 00:43:16;;;;;;;1.25;0.40;;;;;;;7.76;48.37;95000.47;5073220;28;20025;-72
2022/02/19 00:45:42;;;;;;;0.73;0.25;;;;;;;7.83;48.37;94978.94;5071703;28;20485;-73
2022/02/19 00:48:08;;;;;;;2.53;0.63;;;;;;;8.08;48.40;94959.16;5072711;28;20112;-72
2022/02/19 00:50:34;;;;;;;1.77;0.50;;;;;;;8.28;48.32;94950.84;5070325;28;20123;-73
2022/02/19 00:52:59;;;;;;;1.77;0.40;;;;;;;8.28;48.70;94987.16;5071448;28;20020;-71
2022/02/19 00:55:25;;;;;;;4.15;0.50;;;;;;;7.57;49.60;94885.88;5071351;28;20024;-71
2022/02/19 00:57:50;;;;;;;2.03;0.70;;;;;;;7.57;50.56;94901.75;5072797;28;20028;-70
2022/02/19 01:00:16;;;;;;;6.63;0.50;;;;;;;8.57;49.23;94949.81;5072767;28;20060;-70
2022/02/19 01:02:42;;;;;;;3.85;0.70;;;;;;;8.50;48.50;94941.47;5073293;28;20020;-70
2022/02/19 01:05:08;;;;;;;1.13;0.43;;;;;;;8.53;48.43;94970.81;5072329;28;20036;-70
2022/02/19 01:07:35;;;;;;;1.35;0.55;;;;;;;8.77;46.35;94981.22;5072983;28;20035;-71
2022/02/19 01:10:00;;;;;;;1.10;0.40;;;;;;;7.84;47.76;94975.22;5071503;28;20145;-70
2022/02/19 01:12:26;;;;;;;1.02;0.28;;;;;;;7.61;46.67;94921.28;5072422;28;20039;-70
2022/02/19 01:14:51;;;;;;;0.30;0.20;;;;;;;8.01;45.18;94979.94;5072950;28;20460;-71
2022/02/19 01:17:16;;;;;;;2.25;0.60;;;;;;;8.07;44.09;94896.66;5071293;28;20027;-70
2022/02/19 01:19:42;;;;;;;0.88;0.32;;;;;;;7.90;42.86;94942.25;5070082;28;20434;-70
2022/02/19 01:22:08;;;;;;;1.73;0.40;;;;;;;7.43;44.05;94949.38;5072206;28;20025;-72
2022/02/19 01:24:33;;;;;;;1.58;0.50;;;;;;;8.55;41.89;94928.13;5072004;28;20025;-72
2022/02/19 01:26:59;;;;;;;3.50;0.50;;;;;;;8.54;41.49;94918.56;5072217;28;20024;-72
2022/02/19 01:29:24;;;;;;;0.95;0.30;;;;;;;8.48;41.55;94940.97;5071982;28;20036;-70
2022/02/19 01:31:50;;;;;;;6.25;0.70;;;;;;;9.22;40.26;94988.53;5070559;28;20115;-70
2022/02/19 01:34:16;;;;;;;2.63;0.40;;;;;;;8.75;39.84;94897.72;5070318;28;20461;-70
2022/02/19 01:36:41;;;;;;;1.95;0.50;;;;;;;8.93;40.76;94994.97;5071032;28;20106;-70
2022/02/19 01:39:07;;;;;;;1.70;0.50;;;;;;;10.08;39.59;94988.38;5071758;28;20486;-69
2022/02/19 01:41:32;;;;;;;1.27;0.30;;;;;;;9.40;40.91;94978.84;5071719;28;20033;-70
2022/02/19 01:44:09;;;;;;;2.63;0.50;;;;;;;9.63;40.52;94928.13;5071917;28;20149;-70
2022/02/19 01:46:35;;;;;;;0.98;0.30;;;;;;;9.06;42.36;94993.38;5071794;28;20039;-71
2022/02/19 01:49:01;;;;;;;1.77;0.32;;;;;;;8.88;41.97;94973.06;5070098;28;20024;-70
2022/02/19 01:51:31;;;;;;;1.55;0.40;;;;;;;9.07;41.91;94953.28;5070869;28;20029;-70
2022/02/19 01:53:57;;;;;;;1.88;0.30;;;;;;;9.73;41.51;94985.53;5071671;28;20096;-70
2022/02/19 01:56:23;;;;;;;1.65;0.70;;;;;;;9.61;41.65;94979.94;5071599;28;20020;-70
2022/02/19 01:58:48;;;;;;;0.77;0.30;;;;;;;9.16;41.81;94929.47;5071393;28;20373;-70
2022/02/19 02:01:14;;;;;;;2.53;0.65;;;;;;;9.35;42.11;94943.34;5070155;28;20020;-70
2022/02/19 02:03:39;;;;;;;1.70;0.40;;;;;;;8.84;44.05;94994.06;5071507;28;20052;-69
2022/02/19 02:06:04;;;;;;;0.98;0.40;;;;;;;9.63;43.51;95002.47;5070639;28;20028;-70
2022/02/19 02:08:30;;;;;;;0.65;0.25;;;;;;;9.49;44.41;95025.63;5070813;28;20024;-70
2022/02/19 02:10:56;;;;;;;0.98;0.22;;;;;;;9.27;43.56;94973.28;5070039;28;20052;-73
2022/02/19 02:13:22;;;;;;;1.40;0.30;;;;;;;9.23;44.41;94967.00;5069864;28;20066;-70
2022/02/19 02:15:51;;;;;;;1.73;0.45;;;;;;;9.62;42.95;94939.03;5071303;28;20066;-70
2022/02/19 02:18:17;;;;;;;1.98;0.38;;;;;;;10.00;43.21;95005.06;5071202;28;20024;-72
2022/02/19 02:20:42;;;;;;;0.82;0.50;;;;;;;9.01;45.21;94988.19;5069904;28;20028;-72
2022/02/19 02:23:08;;;;;;;1.85;0.55;;;;;;;8.10;46.34;94941.13;5071004;28;20028;-72
2022/02/19 02:25:33;;;;;;;1.08;0.40;;;;;;;8.56;45.23;94925.16;5071177;28;20032;-72
2022/02/19 02:27:59;;;;;;;2.92;0.50;;;;;;;8.50;46.54;94960.03;5071160;28;20021;-71
2022/02/19 02:30:25;;;;;;;4.00;0.60;;;;;;;8.73;45.38;94974.94;5069389;28;20020;-71
2022/02/19 02:32:51;;;;;;;2.58;0.60;;;;;;;8.88;45.79;94983.66;5071087;28;20020;-70
2022/02/19 02:35:17;;;;;;;1.92;0.60;;;;;;;8.90;45.44;94994.75;5070253;28;20078;-72
2022/02/19 02:37:43;;;;;;;3.40;0.90;;;;;;;9.32;44.83;94973.19;5069256;28;20062;-72
2022/02/19 02:40:09;;;;;;;2.67;0.70;;;;;;;9.18;44.71;94968.97;5070843;28;20107;-72
2022/02/19 02:42:35;;;;;;;2.60;0.50;;;;;;;9.25;45.71;95025.88;5070705;28;20072;-71
2022/02/19 02:45:00;;;;;;;2.08;0.55;;;;;;;9.13;45.89;95032.78;5069388;28;20020;-70
2022/02/19 02:47:26;;;;;;;2.63;0.95;;;;;;;9.05;45.95;95005.06;5070714;28;20472;-71
2022/02/19 02:49:51;;;;;;;3.53;0.70;;;;;;;8.76;46.53;95008.03;5069889;28;20085;-71
2022/02/19 02:52:16;;;;;;;1.98;0.50;;;;;;;8.98;46.00;95025.91;5070530;28;20021;-71
2022/02/19 02:54:42;;;;;;;1.50;0.60;;;;;;;9.28;45.22;95029.81;5070525;28;20022;-70
2022/02/19 02:57:08;;;;;;;3.33;0.73;;;;;;;8.80;46.65;95031.03;5070752;28;20020;-71
2022/02/19 02:59:34;;;;;;;4.95;0.68;;;;;;;8.57;47.84;95037.28;5070197;28;20028;-71
2022/02/19 03:01:59;;;;;;;4.15;0.70;;;;;;;8.81;47.88;95051.16;5069223;28;20032;-71
2022/02/19 03:04:25;;;;;;;1.45;0.90;;;;;;;7.80;51.67;95059.72;5068517;28;20181;-71
2022/02/19 03:06:50;;;;;;;2.85;0.50;;;;;;;8.10;51.91;95073.56;5068897;28;20031;-71
2022/02/19 03:09:16;;;;;;;2.88;0.50;;;;;;;6.81;61.83;95082.69;5070097;28;20036;-70
2022/02/19 03:11:41;;;;;;;2.40;0.30;;;;;;;6.79;64.06;95090.91;5070449;28;20465;-70
2022/02/19 03:14:07;;;;;;;1.35;0.20;;;;;;;7.07;64.65;95099.06;5070558;28;20037;-70
2022/02/19 03:16:35;;;;;;;1.02;0.20;;;;;;;7.87;61.53;95063.84;5070490;28;20024;-70
2022/02/19 03:19:01;;;;;;;0.65;0.30;;;;;;;7.84;61.56;95086.41;5070342;28;20031;-70
2022/02/19 03:21:26;;;;;;;1.15;0.22;;;;;;;7.15;63.48;95101.88;5069678;28;20029;-70
2022/02/19 03:23:52;;;;;;;1.42;0.30;;;;;;;7.63;61.46;95091.22;5070163;28;20024;-70
2022/02/19 03:26:18;;;;;;;0.60;0.35;;;;;;;7.00;63.29;95089.59;5070555;28;20048;-70
2022/02/19 03:28:44;;;;;;;2.47;0.40;;;;;;;6.52;62.13;95104.66;5070015;28;20036;-70
2022/02/19 03:31:09;;;;;;;2.50;0.20;;;;;;;5.56;63.92;95108.75;5070030;28;20025;-70
2022/02/19 03:33:35;;;;;;;0.80;0.40;;;;;;;5.07;64.33;95102.41;5070516;28;20051;-70
2022/02/19 03:36:00;;;;;;;1.23;0.40;;;;;;;4.83;64.72;95101.44;5068257;28;20128;-70
2022/02/19 03:38:25;;;;;;;0.85;0.10;;;;;;;4.86;65.40;95114.06;5069898;28;20436;-71
2022/02/19 03:40:51;;;;;;;0.98;0.40;;;;;;;4.98;66.01;95117.19;5070060;28;20477;-70
2022/02/19 03:43:16;;;;;;;0.70;0.32;;;;;;;5.26;65.79;95078.06;5069016;28;20025;-70
2022/02/19 03:45:43;;;;;;;2.53;0.40;;;;;;;5.73;65.85;95096.78;5070170;28;20016;-70
2022/02/19 03:48:09;;;;;;;1.40;0.28;;;;;;;5.70;66.86;95115.03;5070258;28;20046;-70
2022/02/19 03:50:35;;;;;;;1.17;0.45;;;;;;;6.11;66.17;95120.84;5069124;28;20640;-70
2022/02/19 03:53:01;;;;;;;0.20;0.17;;;;;;;6.04;66.21;95106.38;5070135;28;20025;-70
2022/02/19 03:55:26;;;;;;;1.10;0.20;;;;;;;6.60;64.51;95100.59;5068842;28;20056;-71
2022/02/19 03:57:51;;;;;;;1.45;0.25;;;;;;;7.01;62.67;95116.84;5073763;28;20029;-69
2022/02/19 04:00:17;;;;;;;1.13;0.20;;;;;;;7.22;62.62;95128.78;5073507;28;20024;-70
2022/02/19 04:02:43;;;;;;;3.40;0.43;;;;;;;7.00;62.91;95139.84;5073718;28;20427;-70
2022/02/19 04:05:12;;;;;;;1.42;0.50;;;;;;;7.21;62.00;95139.63;5071890;28;20035;-70
2022/02/19 04:07:38;;;;;;;1.17;0.20;;;;;;;6.90;63.72;95139.16;5073533;28;20059;-70
2022/02/19 04:10:05;;;;;;;1.92;0.63;;;;;;;7.09;63.14;95131.31;5073204;28;20067;-70
2022/02/19 04:12:30;;;;;;;1.13;0.30;;;;;;;7.32;61.95;95135.00;5072128;28;20028;-70
2022/02/19 04:14:55;;;;;;;0.77;0.40;;;;;;;7.04;63.12;95125.00;5073783;28;20047;-70
2022/02/19 04:17:24;;;;;;;2.30;0.32;;;;;;;7.56;61.13;95128.63;5073569;28;20261;-70
2022/02/19 04:19:50;;;;;;;0.93;0.20;;;;;;;7.70;60.39;95133.22;5073426;28;20020;-70
2022/02/19 04:22:16;;;;;;;0.35;0.20;;;;;;;6.54;64.28;95131.56;5072576;28;20040;-70
2022/02/19 04:24:42;;;;;;;1.80;0.40;;;;;;;6.60;64.79;95143.69;5073457;28;20618;-70
2022/02/19 04:27:08;;;;;;;1.75;0.35;;;;;;;6.36;65.44;95162.13;5073451;28;20028;-69
2022/02/19 04:29:34;;;;;;;2.80;0.47;;;;;;;6.70;64.34;95154.16;5073164;28;20028;-69
2022/02/19 04:31:59;;;;;;;4.20;0.60;;;;;;;7.14;62.73;95144.47;5073135;28;20025;-69
2022/02/19 04:34:24;;;;;;;1.80;0.50;;;;;;;7.06;62.08;95139.78;5071905;28;20543;-69
2022/02/19 04:36:51;;;;;;;3.33;0.60;;;;;;;7.37;61.30;95151.63;5072475;28;20028;-70
2022/02/19 04:39:17;;;;;;;2.83;0.60;;;;;;;6.88;62.14;95154.53;5071579;28;20016;-70
2022/02/19 04:41:43;;;;;;;2.50;0.45;;;;;;;6.37;63.84;95153.13;5072972;28;20491;-70
2022/02/19 04:44:08;;;;;;;2.00;0.45;;;;;;;6.11;64.59;95157.03;5073258;28;20024;-70
2022/02/19 04:46:34;;;;;;;2.63;0.63;;;;;;;6.56;63.18;95163.81;5073067;28;20029;-69
2022/02/19 04:48:59;;;;;;;2.97;0.95;;;;;;;6.83;62.12;95158.03;5072937;28;20060;-71
2022/02/19 04:51:24;;;;;;;3.63;0.57;;;;;;;6.60;62.87;95158.75;5072347;28;20032;-71
2022/02/19 04:53:50;;;;;;;2.53;0.80;;;;;;;6.94;61.92;95156.84;5073052;28;20025;-70
2022/02/19 04:56:15;;;;;;;5.18;0.77;;;;;;;7.14;61.68;95168.28;5072799;28;20025;-70
2022/02/19 04:58:41;;;;;;;2.78;0.80;;;;;;;6.59;62.23;95165.09;5071540;28;20028;-70
2022/02/19 05:01:06;;;;;;;3.70;1.20;;;;;;;6.58;61.95;95148.47;5072648;28;20048;-70
2022/02/19 05:03:35;;;;;;;1.77;0.80;;;;;;;6.85;61.06;95168.31;5072760;28;20400;-71
2022/02/19 05:06:01;;;;;;;3.78;0.80;;;;;;;7.33;60.35;95192.94;5072122;28;20103;-71
2022/02/19 05:08:26;;;;;;;1.55;0.90;;;;;;;7.25;60.16;95181.13;5070673;28;20465;-71
2022/02/19 05:10:52;;;;;;;3.08;0.70;;;;;;;7.31;59.66;95189.78;5072239;28;20036;-71
2022/02/19 05:13:17;;;;;;;6.93;2.10;;;;;;;7.48;59.57;95205.22;5072482;28;20052;-70
2022/02/19 05:15:42;;;;;;;4.10;0.73;;;;;;;7.42;59.75;95206.34;5072525;28;20598;-70
2022/02/19 05:18:08;;;;;;;3.42;0.95;;;;;;;7.38;59.33;95186.81;5071244;28;20035;-71
2022/02/19 05:20:33;;;;;;;3.70;0.60;;;;;;;7.23;59.67;95193.84;5071184;28;20038;-70
2022/02/19 05:22:59;;;;;;;2.05;0.70;;;;;;;7.31;60.09;95208.31;5072296;28;20024;-71
2022/02/19 05:25:24;;;;;;;7.07;1.13;;;;;;;7.09;60.14;95192.94;5072072;28;20017;-70
2022/02/19 05:27:50;;;;;;;3.25;0.70;;;;;;;7.55;58.70;95200.38;5072239;28;20099;-71
2022/02/19 05:30:15;;;;;;;7.07;0.80;;;;;;;7.53;59.36;95223.69;5070521;28;20060;-71
2022/02/19 05:32:41;;;;;;;5.95;1.23;;;;;;;7.13;60.41;95212.47;5072251;28;20100;-70
2022/02/19 05:35:06;;;;;;;3.72;1.30;;;;;;;7.29;59.63;95224.47;5070732;28;20491;-70
2022/02/19 05:37:32;;;;;;;3.53;1.00;;;;;;;7.54;59.04;95226.06;5069842;28;20060;-70
2022/02/19 05:39:59;;;;;;;3.50;0.50;;;;;;;7.62;59.13;95229.94;5071626;28;20025;-71
2022/02/19 05:42:25;;;;;;;1.63;0.68;;;;;;;7.43;58.66;95198.13;5071816;28;20028;-70
2022/02/19 05:44:50;;;;;;;4.20;1.20;;;;;;;7.59;58.62;95238.44;5071963;28;20388;-71
2022/02/19 05:47:17;;;;;;;4.50;0.95;;;;;;;7.56;57.92;95221.25;5071815;28;20016;-71
2022/02/19 05:49:43;;;;;;;1.83;0.55;;;;;;;7.15;58.51;95222.75;5071658;28;20036;-70
2022/02/19 05:52:08;;;;;;;4.65;0.88;;;;;;;7.43;58.08;95243.13;5063459;28;20032;-71
2022/02/19 05:54:34;;;;;;;4.32;0.65;;;;;;;6.95;59.76;95223.75;5071572;28;20135;-71
2022/02/19 05:56:59;;;;;;;5.65;1.55;;;;;;;7.71;57.49;95225.59;5071483;28;20025;-71
2022/02/19 05:59:24;;;;;;;4.38;1.42;;;;;;;8.43;55.83;95251.19;5070015;28;20047;-71
2022/02/19 06:01:50;;;;;;;7.97;1.25;;;;;;;7.61;57.53;95244.25;5071432;28;20104;-71
2022/02/19 06:04:16;;;;;;;7.20;1.50;;;;;;;7.85;56.91;95243.44;5070514;28;20055;-71
2022/02/19 06:06:42;;;;;;;6.35;0.93;;;;;;;8.50;55.62;95256.94;5070704;28;20055;-71
2022/02/19 06:09:07;;;;;;;7.72;2.13;;;;;;;8.36;55.21;95240.13;5069453;28;20098;-72
2022/02/19 06:11:32;;;;;;;1.67;0.52;;;;;;;7.40;58.38;95259.56;5071395;28;20028;-71
2022/02/19 06:13:58;;;;;;;5.53;1.30;;;;;;;7.74;57.02;95259.47;5070049;28;20112;-71
2022/02/19 06:16:23;;;;;;;5.13;1.20;;;;;;;8.10;56.53;95260.88;5069904;28;20028;-71
2022/02/19 06:18:48;;;;;;;6.82;1.10;;;;;;;8.39;55.71;95285.41;5070553;28;20021;-71
2022/02/19 06:21:14;;;;;;;6.43;1.08;;;;;;;7.93;56.44;95266.63;5070549;28;20056;-71
2022/02/19 06:23:39;;;;;;;8.40;1.55;;;;;;;8.40;55.01;95257.84;5070838;28;20017;-71
2022/02/19 06:26:05;;;;;;;6.97;1.55;;;;;;;8.99;53.80;95269.69;5071113;28;20028;-71
2022/02/19 06:28:30;;;;;;;3.13;0.90;;;;;;;8.00;55.46;95246.69;5069605;28;20115;-70
2022/02/19 06:30:55;;;;;;;5.38;1.10;;;;;;;7.89;56.61;95284.19;5070894;28;20031;-70
2022/02/19 06:33:21;;;;;;;6.53;1.20;;;;;;;8.05;54.90;95288.22;5071072;28;20024;-71
2022/02/19 06:35:46;;;;;;;7.25;1.63;;;;;;;7.94;55.35;95290.22;5069448;28;20025;-71
2022/02/19 06:38:12;;;;;;;5.90;1.17;;;;;;;8.60;53.57;95283.28;5070585;28;20056;-72
2022/02/19 06:40:37;;;;;;;4.43;1.00;;;;;;;8.63;53.44;95285.34;5070507;28;20028;-70
2022/02/19 06:43:02;;;;;;;5.40;1.08;;;;;;;8.00;54.37;95298.88;5071386;28;20020;-70
2022/02/19 06:45:28;;;;;;;6.75;1.10;;;;;;;8.78;52.63;95311.66;5071244;28;20028;-71
2022/02/19 06:47:53;;;;;;;6.43;1.38;;;;;;;8.07;54.13;95304.63;5071040;28;20468;-70
2022/02/19 06:50:19;;;;;;;7.97;1.50;;;;;;;8.77;52.48;95296.03;5070872;28;20059;-71
2022/02/19 06:52:44;;;;;;;5.70;1.48;;;;;;;8.70;52.85;95312.31;5067033;28;20028;-76
2022/02/19 06:55:10;;;;;;;7.82;1.20;;;;;;;9.24;51.69;95332.19;5071078;28;20024;-70
2022/02/19 06:57:36;;;;;;;5.05;0.90;;;;;;;8.23;53.92;95327.19;5071071;28;20468;-69
2022/02/19 07:00:06;;;;;;;6.10;1.30;;;;;;;8.03;54.47;95333.53;5070886;28;20048;-70
2022/02/19 07:02:32;;;;;;;7.90;1.50;;;;;;;8.66;53.14;95353.75;5070937;28;20107;-68
2022/02/19 07:04:58;;;;;;;8.65;1.55;;;;;;;7.82;53.84;95358.66;5071877;28;20081;-74
2022/02/19 07:07:23;;;;;;;6.85;2.13;;;;;;;8.17;53.59;95365.44;5070031;28;20028;-69
2022/02/19 07:09:49;;;;;;;6.75;1.77;;;;;;;7.89;54.22;95353.84;5069036;28;20067;-70
2022/02/19 07:12:14;;;;;;;7.50;1.70;;;;;;;7.62;54.23;95338.47;5070812;28;20111;-71
2022/02/19 07:14:40;;;;;;;4.47;1.23;;;;;;;7.94;53.56;95366.25;5069553;28;20141;-69
2022/02/19 07:17:05;;;;;;;7.50;1.40;;;;;;;7.77;54.24;95370.09;5071012;28;20576;-71
2022/02/19 07:19:34;;;;;;;8.27;1.40;;;;;;;7.50;55.14;95369.81;5069087;28;20132;-70
2022/02/19 07:22:01;;;;;;;7.28;1.77;;;;;;;8.06;53.59;95374.56;5069463;28;20670;-71
2022/02/19 07:24:27;;;;;;;8.40;1.73;;;;;;;8.14;53.26;95381.91;5070493;28;20028;-69
2022/02/19 07:26:59;;;;;;;3.25;1.15;;;;;;;7.49;54.23;95392.88;5070370;28;20032;-69
2022/02/19 07:29:25;;;;;;;6.60;1.63;;;;;;;8.16;52.08;95366.50;5070210;28;20024;-69
2022/02/19 07:31:51;;;;;;;10.43;1.65;;;;;;;7.88;52.74;95389.31;5072926;28;20362;-69
2022/02/19 07:34:17;;;;;;;9.27;1.77;;;;;;;8.33;50.94;95389.91;5074545;28;20052;-70
2022/02/19 07:36:43;;;;;;;7.75;1.40;;;;;;;7.36;52.33;95398.00;5073537;28;20115;-70
2022/02/19 07:39:10;;;;;;;9.52;1.55;;;;;;;7.79;52.11;95401.59;5072752;28;20637;-69
2022/02/19 07:41:37;;;;;;;9.35;1.88;;;;;;;7.88;51.55;95412.38;5073962;28;20107;-70
2022/02/19 07:44:03;;;;;;;4.18;1.48;;;;;;;8.42;51.01;95416.59;5074136;28;20024;-70
2022/02/19 07:46:29;;;;;;;9.90;1.67;;;;;;;8.30;51.37;95423.06;5074095;28;20476;-70
2022/02/19 07:48:54;;;;;;;5.47;1.42;;;;;;;8.24;51.05;95413.59;5073848;28;20052;-70
2022/02/19 07:59:31;;;;;;;7.70;1.58;;;;;;;7.72;52.26;95430.25;5073497;28;20431;-70
2022/02/19 08:01:56;;;;;;;5.03;1.00;;;;;;;7.91;51.37;95456.84;5073850;28;20021;-70
2022/02/19 08:04:22;;;;;;;6.65;1.42;;;;;;;7.46;51.97;95456.13;5073932;28;20366;-70
2022/02/19 08:06:47;;;;;;;5.57;0.98;;;;;;;7.50;51.39;95439.44;5073028;28;20082;-70
2022/02/19 08:09:13;;;;;;;4.80;1.30;;;;;;;7.87;50.01;95429.31;5073256;28;20060;-70
2022/02/19 08:11:39;;;;;;;8.90;1.77;;;;;;;8.06;49.39;95416.97;5073529;28;20358;-70
2022/02/19 08:14:06;;;;;;;6.63;1.60;;;;;;;8.02;48.88;95445.88;5073614;28;20104;-70
2022/02/19 08:16:32;;;;;;;9.48;1.50;;;;;;;9.20;47.72;95440.00;5072330;28;20552;-68
2022/02/19 08:18:58;;;;;;;7.50;1.30;;;;;;;8.36;47.38;95468.06;5073409;28;20036;-68
2022/02/19 08:21:27;;;;;;;5.70;1.20;;;;;;;8.17;47.21;95436.97;5072468;28;20069;-66
2022/02/19 08:23:52;;;;;;;4.10;1.15;;;;;;;9.24;45.22;95446.31;5073355;28;20476;-68
2022/02/19 08:26:24;;;;;;;5.15;1.60;;;;;;;9.24;45.13;95448.19;5073514;28;20031;-66
2022/02/19 08:28:53;;;;;;;6.60;1.70;;;;;;;9.25;45.31;95466.47;5072863;28;20029;-66
2022/02/19 08:31:25;;;;;;;5.68;1.67;;;;;;;9.75;44.85;95464.13;5073037;28;20583;-70
2022/02/19 08:33:50;;;;;;;7.85;1.67;;;;;;;9.05;47.04;95462.22;5071990;28;20029;-68
2022/02/19 08:36:16;;;;;;;6.57;1.38;;;;;;;9.35;47.29;95473.50;5071864;28;20029;-68
2022/02/19 08:38:41;;;;;;;12.60;1.45;;;;;;;9.52;46.50;95479.09;5063008;28;20090;-68
2022/02/19 08:41:07;;;;;;;4.00;1.15;;;;;;;9.32;47.06;95479.41;5071116;28;20419;-68
2022/02/19 08:43:32;;;;;;;12.50;2.53;;;;;;;9.68;45.94;95478.88;5071067;28;20028;-68
2022/02/19 08:45:58;;;;;;;3.78;1.05;;;;;;;8.31;48.53;95476.88;5052694;22;20649;-68
2022/02/19 08:48:23;;;;;;;7.80;1.95;;;;;;;8.81;46.95;95438.41;5032754;28;20032;-69
2022/02/19 08:50:48;;;;;;;3.60;1.55;;;;;;;8.14;46.88;95463.22;5031219;28;20041;-69
2022/02/19 08:53:14;;;;;;;4.65;0.95;;;;;;;7.44;48.02;95458.28;5031226;28;20028;-69
2022/02/19 08:55:41;;;;;;;7.85;1.45;;;;;;;7.73;48.55;95498.84;5032410;28;20481;-67
2022/02/19 08:58:08;;;;;;;9.73;1.25;;;;;;;7.91;46.65;95460.28;5032770;28;20056;-67
2022/02/19 09:00:33;;;;;;;8.40;1.25;;;;;;;7.88;46.99;95470.63;5032434;28;20025;-65
2022/02/19 09:02:59;;;;;;;6.82;1.38;;;;;;;7.98;46.35;95452.00;5032942;28;20036;-67
2022/02/19 09:05:26;;;;;;;12.25;1.20;;;;;;;7.68;45.63;95490.16;5031759;28;20037;-67
2022/02/19 09:07:52;;;;;;;5.43;1.15;;;;;;;8.41;44.05;95494.56;5032394;28;20053;-69
2022/02/19 09:10:18;;;;;;;4.90;1.10;;;;;;;8.01;45.29;95497.28;5032217;28;20112;-68
2022/02/19 09:12:46;;;;;;;3.67;0.82;;;;;;;8.19;44.49;95498.44;5032345;28;20109;-65
2022/02/19 09:15:18;;;;;;;4.38;1.33;;;;;;;7.91;43.95;95528.34;5032289;28;20017;-69
2022/02/19 09:17:44;;;;;;;8.43;2.42;;;;;;;8.72;42.97;95490.50;5032459;28;20036;-64
2022/02/19 09:20:11;;;;;;;6.95;1.40;;;;;;;8.65;42.96;95513.09;5032253;28;20025;-64
2022/02/19 09:22:39;;;;;;;5.10;1.70;;;;;;;8.73;43.30;95523.09;5031902;28;20018;-64
2022/02/19 09:25:06;;;;;;;10.70;1.77;;;;;;;8.03;43.80;95526.13;5030782;28;20053;-70
2022/02/19 09:27:33;;;;;;;5.13;1.52;;;;;;;8.55;43.09;95517.47;5032298;28;20037;-66
2022/02/19 09:29:58;;;;;;;5.93;0.85;;;;;;;7.48;43.66;95491.88;5031935;28;20021;-64
2022/02/19 09:32:23;;;;;;;7.57;1.98;;;;;;;8.20;42.91;95523.09;5032119;28;20082;-64
2022/02/19 09:34:50;;;;;;;5.10;1.30;;;;;;;8.61;42.11;95473.13;5032087;28;20030;-66
2022/02/19 09:37:16;;;;;;;3.20;0.82;;;;;;;8.46;42.99;95534.28;5031685;28;20025;-66
2022/02/19 09:39:41;;;;;;;8.38;1.42;;;;;;;8.31;43.16;95498.84;5031403;28;20033;-68
2022/02/19 09:42:07;;;;;;;3.42;1.00;;;;;;;8.34;42.96;95553.16;5032021;28;20365;-66
2022/02/19 09:44:32;;;;;;;3.58;1.00;;;;;;;8.14;44.03;95519.69;5031791;28;20025;-67
2022/02/19 09:46:57;;;;;;;4.57;1.33;;;;;;;8.26;44.36;95520.09;5032015;28;20047;-70
2022/02/19 09:49:24;;;;;;;9.60;1.80;;;;;;;8.90;43.67;95549.16;5031762;28;20025;-67
2022/02/19 09:51:50;;;;;;;8.48;2.25;;;;;;;9.11;42.50;95522.13;5031329;28;20041;-67
2022/02/19 09:54:15;;;;;;;6.65;1.40;;;;;;;8.43;42.58;95524.22;5030707;28;20026;-70
2022/02/19 09:56:40;;;;;;;5.18;1.35;;;;;;;8.32;42.66;95548.13;5031403;28;20076;-68
2022/02/19 09:59:08;;;;;;;1.90;0.90;;;;;;;8.08;43.05;95534.03;5031372;28;20028;-71
2022/02/19 10:01:33;;;;;;;4.63;1.00;;;;;;;7.92;43.90;95538.66;5031491;28;20140;-68
2022/02/19 10:04:04;;;;;;;6.35;1.48;;;;;;;8.66;42.24;95549.19;5031848;28;20032;-67
2022/02/19 10:06:31;;;;;;;6.93;1.10;;;;;;;8.69;41.84;95549.41;5031908;28;20031;-67
2022/02/19 10:09:17;;;;;;;6.25;1.42;;;;;;;9.07;41.71;95539.69;5030696;28;20154;-67
2022/02/19 10:11:44;;;;;;;4.05;1.35;;;;;;;9.11;41.31;95531.97;5030113;28;20405;-66
2022/02/19 10:14:21;;;;;;;8.57;1.40;;;;;;;9.78;39.69;95561.84;5031323;28;20036;-68
2022/02/19 10:17:07;;;;;;;4.40;0.95;;;;;;;8.73;41.07;95553.06;5031364;28;20025;-65
2022/02/19 10:19:51;;;;;;;4.45;1.08;;;;;;;8.47;41.27;95562.34;5031136;28;20022;-66
2022/02/19 10:22:19;;;;;;;4.55;1.25;;;;;;;9.03;40.67;95546.63;5030738;28;20190;-64
2022/02/19 10:24:47;;;;;;;5.45;1.30;;;;;;;8.59;40.32;95541.53;5021401;28;20025;-66
2022/02/19 10:27:12;;;;;;;3.53;0.95;;;;;;;9.10;40.29;95557.69;5031363;28;20084;-66
2022/02/19 10:29:51;;;;;;;8.75;1.60;;;;;;;9.92;39.62;95537.19;5030854;28;20030;-63
2022/02/19 10:32:17;;;;;;;4.00;1.17;;;;;;;10.00;39.22;95563.91;5030966;28;20025;-64
2022/02/19 10:35:00;;;;;;;5.53;1.48;;;;;;;9.99;39.11;95554.38;5031085;28;20603;-65
2022/02/19 10:37:28;;;;;;;4.43;1.13;;;;;;;9.80;38.84;95556.25;5030791;28;20152;-67
2022/02/19 10:39:56;;;;;;;3.35;1.42;;;;;;;9.23;39.59;95552.78;5030379;28;20351;-66
2022/02/19 10:42:32;;;;;;;5.45;1.35;;;;;;;8.17;39.31;95523.63;5030545;28;20029;-64
2022/02/19 10:44:58;;;;;;;3.92;0.93;;;;;;;8.56;39.46;95576.59;5030520;28;20017;-66
2022/02/19 10:47:26;;;;;;;3.67;1.23;;;;;;;8.25;40.26;95558.28;5030692;28;20063;-67
2022/02/19 10:50:13;;;;;;;4.85;1.35;;;;;;;9.27;38.85;95567.06;5030394;28;20049;-68
2022/02/19 10:52:43;;;;;;;4.28;1.10;;;;;;;8.85;39.26;95581.84;5030078;28;20100;-67
2022/02/19 10:55:14;;;;;;;5.07;1.00;;;;;;;8.99;38.83;95568.72;5030381;28;20087;-68
2022/02/19 10:57:44;;;;;;;2.63;1.17;;;;;;;8.16;39.71;95533.44;5030706;28;20108;-69
2022/02/19 11:00:10;;;;;;;3.90;1.50;;;;;;;8.98;39.13;95541.38;5030384;28;20025;-68
2022/02/19 11:02:37;;;;;;;7.07;1.25;;;;;;;8.68;39.42;95517.84;5030737;28;20030;-68
2022/02/19 11:05:06;;;;;;;6.70;1.63;;;;;;;9.05;39.55;95546.34;5028792;28;20485;-67
2022/02/19 11:07:34;;;;;;;5.13;1.65;;;;;;;9.05;39.83;95556.97;5030029;28;20062;-67
2022/02/19 11:10:00;;;;;;;6.85;1.48;;;;;;;8.66;40.08;95507.53;5029942;28;20057;-70
2022/02/19 11:12:26;;;;;;;6.78;1.42;;;;;;;9.27;39.87;95543.97;5029868;28;20029;-67
2022/02/19 11:14:51;;;;;;;5.13;1.63;;;;;;;10.13;38.86;95538.44;5030161;28;20389;-66
2022/02/19 11:17:17;;;;;;;7.57;1.60;;;;;;;9.96;37.87;95541.66;5030186;28;20028;-67
2022/02/19 11:19:43;;;;;;;6.22;1.83;;;;;;;9.57;37.89;95545.41;5030095;28;20032;-66
2022/02/19 11:22:10;;;;;;;6.75;1.50;;;;;;;9.43;38.54;95539.25;5030029;28;20030;-65
2022/02/19 11:24:39;;;;;;;4.35;1.33;;;;;;;9.84;37.35;95486.31;5028512;28;20682;-67
2022/02/19 11:27:05;;;;;;;9.00;1.73;;;;;;;9.90;38.32;95562.19;5029112;28;20104;-68
2022/02/19 11:29:32;;;;;;;5.78;1.77;;;;;;;8.99;39.64;95519.09;5028731;28;20025;-69
2022/02/19 11:31:58;;;;;;;4.90;1.35;;;;;;;8.55;39.97;95564.41;5030034;28;20057;-66
2022/02/19 11:34:23;;;;;;;6.13;1.30;;;;;;;8.89;39.84;95542.28;5030406;28;20113;-68
2022/02/19 11:36:50;;;;;;;5.85;1.92;;;;;;;9.43;38.79;95554.38;5030685;28;20108;-68
2022/02/19 11:39:15;;;;;;;1.48;1.05;;;;;;;8.82;39.29;95556.69;5029939;28;20083;-69
2022/02/19 11:41:43;;;;;;;7.65;2.00;;;;;;;9.73;38.24;95527.41;5029891;28;20022;-67
2022/02/19 11:44:15;;;;;;;3.88;1.17;;;;;;;9.45;37.77;95553.00;5028522;28;20029;-69
2022/02/19 11:46:40;;;;;;;7.75;1.45;;;;;;;9.05;38.32;95517.94;5028908;28;20072;-69